createdAt,value
2022-10-22T00:00:12.647Z,0.4
2022-10-22T00:01:22.288Z,0.6
2022-10-22T00:02:29.993Z,0.6
2022-10-22T00:03:38.671Z,0.5
2022-10-22T00:04:48.331Z,0.6
2022-10-22T00:05:56.985Z,0.6
2022-10-22T00:07:07.028Z,0.6
2022-10-22T00:08:14.721Z,0.6
2022-10-22T00:09:24.400Z,0.5
2022-10-22T00:10:34.096Z,0.6
2022-10-22T00:11:41.771Z,0.5
2022-10-22T00:12:51.448Z,0.5
2022-10-22T00:14:00.253Z,0.7
2022-10-22T00:15:07.913Z,0.6
2022-10-22T00:16:17.595Z,0.7
2022-10-22T00:17:27.233Z,0.5
2022-10-22T00:18:36.919Z,0.5
2022-10-22T00:19:46.614Z,0.4
2022-10-22T00:20:54.275Z,0.3
2022-10-22T00:22:03.968Z,0.6
2022-10-22T00:23:13.639Z,0.4
2022-10-22T00:24:22.317Z,0.4
2022-10-22T00:25:32.153Z,0.4
2022-10-22T00:26:40.861Z,0.3
2022-10-22T00:27:50.585Z,0.4
2022-10-22T00:29:00.242Z,0.6
2022-10-22T00:30:09.931Z,0.5
2022-10-22T00:31:19.616Z,0.5
2022-10-22T00:32:29.314Z,0.5
2022-10-22T00:33:37.973Z,0.4
2022-10-22T00:34:47.657Z,0.5
2022-10-22T00:35:57.314Z,0.5
2022-10-22T00:37:07.022Z,0.5
2022-10-22T00:38:16.693Z,0.5
2022-10-22T00:39:25.412Z,0.5
2022-10-22T00:40:35.094Z,0.4
2022-10-22T00:41:43.754Z,0.5
2022-10-22T00:42:51.444Z,0.6
2022-10-22T00:44:01.119Z,0.5
2022-10-22T00:45:08.822Z,0.5
2022-10-22T00:46:17.504Z,0.5
2022-10-22T00:47:27.176Z,0.5
2022-10-22T00:48:34.927Z,0.4
2022-10-22T00:49:44.583Z,0.5
2022-10-22T00:50:53.249Z,0.4
2022-10-22T00:52:01.897Z,0.4
2022-10-22T00:53:11.569Z,0.3
2022-10-22T00:54:20.317Z,0.6
2022-10-22T00:55:28.987Z,0.6
2022-10-22T00:56:38.706Z,0.7
2022-10-22T00:57:46.367Z,0.5
2022-10-22T00:58:56.066Z,0.7
2022-10-22T01:00:05.745Z,0.7
2022-10-22T01:01:14.465Z,0.4
2022-10-22T01:02:24.099Z,0.4
2022-10-22T01:03:32.761Z,0.4
2022-10-22T01:04:41.446Z,0.3
2022-10-22T01:05:51.115Z,0.3
2022-10-22T01:07:00.792Z,0.4
2022-10-22T01:09:19.157Z,0.5
2022-10-22T01:10:27.828Z,0.4
2022-10-22T01:11:38.526Z,0.4
2022-10-22T01:12:47.198Z,0.3
2022-10-22T01:13:56.871Z,0.4
2022-10-22T01:15:06.557Z,0.3
2022-10-22T01:16:16.252Z,0.4
2022-10-22T01:17:26.085Z,0.5
2022-10-22T01:18:35.883Z,0.4
2022-10-22T01:19:44.637Z,0.5
2022-10-22T01:20:54.371Z,0.4
2022-10-22T01:22:04.130Z,0.4
2022-10-22T01:27:02.618Z,0.4
2022-10-22T01:28:12.392Z,0.4
2022-10-22T01:29:21.101Z,0.5
2022-10-22T01:30:28.820Z,0.4
2022-10-22T01:31:38.490Z,0.4
2022-10-22T01:32:47.239Z,0.5
2022-10-22T01:33:55.962Z,0.3
2022-10-22T01:35:05.888Z,0.4
2022-10-22T01:36:13.570Z,0.3
2022-10-22T01:37:22.287Z,0.3
2022-10-22T01:38:32.044Z,0.5
2022-10-22T01:39:41.827Z,0.3
2022-10-22T01:40:51.545Z,0.4
2022-10-22T01:42:01.229Z,0.3
2022-10-22T01:43:10.959Z,0.4
2022-10-22T01:44:18.717Z,0.3
2022-10-22T01:45:28.381Z,0.3
2022-10-22T01:46:37.086Z,0.3
2022-10-22T01:47:44.756Z,0.3
2022-10-22T01:48:53.493Z,0.5
2022-10-22T01:50:02.239Z,0.3
2022-10-22T01:51:09.949Z,0.3
2022-10-22T01:52:19.587Z,0.2
2022-10-22T01:53:28.276Z,0.4
2022-10-22T01:54:36.980Z,0.3
2022-10-22T01:55:44.812Z,0.2
2022-10-22T01:56:53.556Z,0.2
2022-10-22T01:58:02.256Z,0.3
2022-10-22T01:59:09.933Z,0.3
2022-10-22T02:00:17.608Z,0.2
2022-10-22T02:01:25.325Z,0.5
2022-10-22T02:02:34.144Z,0.6
2022-10-22T02:03:42.783Z,0.3
2022-10-22T02:04:52.437Z,0.5
2022-10-22T02:06:02.144Z,0.3
2022-10-22T02:07:10.897Z,0.3
2022-10-22T02:08:19.559Z,0.3
2022-10-22T02:09:28.387Z,0.3
2022-10-22T02:10:37.019Z,0.3
2022-10-22T02:11:45.699Z,0.5
2022-10-22T02:12:53.386Z,0.4
2022-10-22T02:14:02.039Z,0.5
2022-10-22T02:15:09.708Z,0.3
2022-10-22T02:16:17.374Z,0.5
2022-10-22T02:17:25.046Z,0.5
2022-10-22T02:18:36.285Z,0.3
2022-10-22T02:19:45.474Z,0.5
2022-10-22T02:20:54.305Z,0.3
2022-10-22T02:22:02.871Z,0.4
2022-10-22T02:23:12.573Z,0.8
2022-10-22T02:24:21.232Z,0.3
2022-10-22T02:25:29.916Z,0.3
2022-10-22T02:26:38.561Z,0.2
2022-10-22T02:27:46.280Z,0.4
2022-10-22T02:28:55.999Z,0.4
2022-10-22T02:30:05.783Z,0.3
2022-10-22T02:31:14.409Z,0.4
2022-10-22T02:32:23.173Z,0.3
2022-10-22T02:33:31.912Z,0.3
2022-10-22T02:34:40.577Z,0.2
2022-10-22T02:35:49.336Z,0.3
2022-10-22T02:36:57.109Z,0.3
2022-10-22T02:38:06.869Z,0.3
2022-10-22T02:40:26.416Z,0.2
2022-10-22T02:41:36.102Z,0.5
2022-10-22T02:42:43.773Z,0.3
2022-10-22T02:43:51.494Z,0.3
2022-10-22T02:45:00.136Z,0.3
2022-10-22T02:46:07.834Z,0.4
2022-10-22T02:47:17.509Z,0.4
2022-10-22T02:48:25.265Z,0.3
2022-10-22T02:49:35.053Z,0.5
2022-10-22T02:50:44.739Z,0.4
2022-10-22T02:51:52.430Z,0.4
2022-10-22T02:53:00.144Z,0.3
2022-10-22T02:54:08.818Z,0.6
2022-10-22T02:55:18.520Z,0.4
2022-10-22T02:56:27.202Z,0.4
2022-10-22T02:57:34.903Z,0.4
2022-10-22T02:58:43.727Z,0.4
2022-10-22T02:59:50.442Z,0.5
2022-10-22T03:01:00.221Z,0.4
2022-10-22T03:02:09.810Z,0.3
2022-10-22T03:03:19.535Z,0.5
2022-10-22T03:04:29.238Z,0.5
2022-10-22T03:05:37.914Z,0.4
2022-10-22T03:06:47.600Z,0.4
2022-10-22T03:07:57.263Z,0.3
2022-10-22T03:09:05.994Z,0.3
2022-10-22T03:10:15.733Z,0.3
2022-10-22T03:11:22.411Z,0.5
2022-10-22T03:12:31.139Z,0.4
2022-10-22T03:13:39.850Z,0.5
2022-10-22T03:14:49.555Z,0.4
2022-10-22T03:15:59.282Z,0.4
2022-10-22T03:17:08.990Z,0.3
2022-10-22T03:18:16.680Z,0.4
2022-10-22T03:19:26.394Z,0.3
2022-10-22T03:20:35.110Z,0.3
2022-10-22T03:21:43.826Z,0.4
2022-10-22T03:22:53.500Z,0.6
2022-10-22T03:24:00.320Z,0.6
2022-10-22T03:25:07.018Z,1.1
2022-10-22T03:26:16.680Z,0.9
2022-10-22T03:27:25.363Z,0.9
2022-10-22T03:28:35.008Z,1.5
2022-10-22T03:29:44.673Z,1.5
2022-10-22T03:30:52.334Z,1.4
2022-10-22T03:32:00.996Z,1.1
2022-10-22T03:33:10.910Z,1.6
2022-10-22T03:34:19.661Z,1.9
2022-10-22T03:35:28.343Z,1.8
2022-10-22T03:36:37.027Z,1.6
2022-10-22T03:37:44.742Z,1.7
2022-10-22T03:38:54.466Z,0.9
2022-10-22T03:40:02.164Z,0.9
2022-10-22T03:41:10.841Z,0.8
2022-10-22T03:42:20.477Z,0.8
2022-10-22T03:43:29.218Z,0.6
2022-10-22T03:44:37.918Z,0.5
2022-10-22T03:45:46.610Z,0.5
2022-10-22T03:46:57.440Z,0.5
2022-10-22T03:48:05.959Z,0.5
2022-10-22T03:49:13.649Z,0.3
2022-10-22T03:50:23.382Z,0.3
2022-10-22T03:51:33.154Z,0.3
2022-10-22T03:52:42.847Z,0.2
2022-10-22T03:53:52.478Z,0.2
2022-10-22T03:55:01.168Z,0.3
2022-10-22T03:56:08.885Z,0.3
2022-10-22T03:57:17.579Z,0.2
2022-10-22T03:58:26.292Z,0.4
2022-10-22T03:59:35.111Z,0.3
2022-10-22T04:00:44.843Z,0.3
2022-10-22T04:01:54.452Z,0.4
2022-10-22T04:03:03.180Z,0.3
2022-10-22T04:04:11.886Z,0.2
2022-10-22T04:05:20.561Z,0.2
2022-10-22T04:06:30.269Z,0.3
2022-10-22T04:07:40.332Z,0.2
2022-10-22T04:08:49.773Z,0.3
2022-10-22T04:09:59.498Z,0.2
2022-10-22T04:11:09.213Z,0.3
2022-10-22T04:12:17.857Z,0.4
2022-10-22T04:13:24.520Z,0.3
2022-10-22T04:14:32.277Z,0.6
2022-10-22T04:15:40.988Z,0.4
2022-10-22T04:16:50.616Z,0.4
2022-10-22T04:18:00.336Z,0.4
2022-10-22T04:19:10.071Z,0.3
2022-10-22T04:20:18.821Z,0.4
2022-10-22T04:21:27.531Z,0.4
2022-10-22T04:22:35.266Z,0.3
2022-10-22T04:23:42.936Z,0.2
2022-10-22T04:26:00.306Z,0.4
2022-10-22T04:27:08.991Z,0.4
2022-10-22T04:28:17.709Z,0.4
2022-10-22T04:29:25.387Z,0.3
2022-10-22T04:30:34.183Z,0.3
2022-10-22T04:31:42.900Z,0.4
2022-10-22T04:32:51.609Z,0.4
2022-10-22T04:34:00.301Z,0.3
2022-10-22T04:35:09.001Z,0.4
2022-10-22T04:36:15.778Z,0.4
2022-10-22T04:37:24.485Z,0.4
2022-10-22T04:38:33.216Z,0.3
2022-10-22T04:39:42.913Z,0.3
2022-10-22T04:40:52.712Z,0.2
2022-10-22T04:42:01.417Z,0.3
2022-10-22T04:43:10.098Z,0.3
2022-10-22T04:44:19.820Z,0.2
2022-10-22T04:45:29.490Z,0.2
2022-10-22T04:46:39.293Z,0.2
2022-10-22T04:47:48.082Z,0.2
2022-10-22T04:48:57.738Z,0.3
2022-10-22T04:50:06.417Z,0.2
2022-10-22T04:51:14.088Z,0.2
2022-10-22T04:52:22.768Z,0.2
2022-10-22T04:53:32.588Z,0.2
2022-10-22T04:54:41.340Z,0.2
2022-10-22T04:55:50.005Z,0.2
2022-10-22T04:56:59.689Z,0.3
2022-10-22T04:58:08.414Z,0.2
2022-10-22T04:59:16.182Z,0.3
2022-10-22T05:00:25.857Z,0.3
2022-10-22T05:01:35.770Z,0.2
2022-10-22T05:02:44.326Z,0.3
2022-10-22T05:03:53.054Z,0.2
2022-10-22T05:05:02.770Z,0.2
2022-10-22T05:07:19.084Z,0.2
2022-10-22T05:08:27.774Z,0.2
2022-10-22T05:09:37.516Z,0.2
2022-10-22T05:10:47.182Z,0.2
2022-10-22T05:11:54.930Z,0.2
2022-10-22T05:13:02.547Z,0.2
2022-10-22T05:14:11.201Z,0.3
2022-10-22T05:15:19.902Z,0.3
2022-10-22T05:16:28.600Z,0.2
2022-10-22T05:17:44.355Z,0.3
2022-10-22T05:18:54.018Z,0.2
2022-10-22T05:20:01.801Z,0.2
2022-10-22T05:21:11.422Z,0.3
2022-10-22T05:22:19.137Z,0.3
2022-10-22T05:23:27.809Z,0.3
2022-10-22T05:24:37.465Z,0.4
2022-10-22T05:25:46.165Z,0.3
2022-10-22T05:26:55.842Z,0.3
2022-10-22T05:28:05.527Z,0.4
2022-10-22T05:29:14.199Z,0.4
2022-10-22T05:30:23.902Z,0.4
2022-10-22T05:31:31.576Z,0.3
2022-10-22T05:32:40.246Z,0.4
2022-10-22T05:33:49.922Z,0.5
2022-10-22T05:34:57.586Z,0.5
2022-10-22T05:36:07.320Z,0.4
2022-10-22T05:37:16.975Z,0.3
2022-10-22T05:38:24.669Z,0.4
2022-10-22T05:39:34.494Z,0.4
2022-10-22T05:40:42.207Z,0.3
2022-10-22T05:41:50.991Z,0.4
2022-10-22T05:42:59.662Z,0.4
2022-10-22T05:44:08.336Z,0.3
2022-10-22T05:45:18.103Z,0.4
2022-10-22T05:46:27.772Z,0.4
2022-10-22T05:47:35.445Z,0.3
2022-10-22T05:48:45.144Z,0.4
2022-10-22T05:49:53.819Z,0.4
2022-10-22T05:51:02.556Z,0.3
2022-10-22T05:52:12.307Z,0.3
2022-10-22T05:53:21.949Z,0.4
2022-10-22T05:54:31.747Z,0.3
2022-10-22T05:55:41.445Z,0.3
2022-10-22T05:56:49.117Z,0.4
2022-10-22T05:57:58.854Z,0.4
2022-10-22T05:59:06.508Z,0.4
2022-10-22T06:00:16.540Z,0.4
2022-10-22T06:01:25.850Z,0.3
2022-10-22T06:02:34.589Z,0.5
2022-10-22T06:03:44.312Z,0.3
2022-10-22T06:04:53.013Z,0.4
2022-10-22T06:06:01.705Z,0.3
2022-10-22T06:07:11.395Z,0.3
2022-10-22T06:08:21.132Z,0.3
2022-10-22T06:09:29.808Z,0.2
2022-10-22T06:10:39.517Z,0.2
2022-10-22T06:11:47.219Z,0.2
2022-10-22T06:12:56.960Z,0.2
2022-10-22T06:14:05.660Z,0.2
2022-10-22T06:15:13.329Z,0.3
2022-10-22T06:16:22.990Z,0.2
2022-10-22T06:17:33.687Z,0.3
2022-10-22T06:18:43.376Z,0.2
2022-10-22T06:19:53.141Z,0.2
2022-10-22T06:21:00.725Z,0.2
2022-10-22T06:22:10.415Z,0.2
2022-10-22T06:23:19.088Z,0.3
2022-10-22T06:24:26.789Z,0.2
2022-10-22T06:25:36.478Z,0.2
2022-10-22T06:26:44.185Z,0.2
2022-10-22T06:27:52.919Z,0.2
2022-10-22T06:29:02.614Z,0.2
2022-10-22T06:30:10.285Z,0.2
2022-10-22T06:31:20.073Z,0.2
2022-10-22T06:32:29.803Z,0.3
2022-10-22T06:33:37.484Z,0.2
2022-10-22T06:34:47.164Z,0.2
2022-10-22T06:35:54.833Z,0.3
2022-10-22T06:37:03.553Z,0.3
2022-10-22T06:38:13.224Z,0.3
2022-10-22T06:39:21.962Z,0.2
2022-10-22T06:40:31.664Z,0.3
2022-10-22T06:41:41.341Z,0.2
2022-10-22T06:42:50.149Z,0.2
2022-10-22T06:43:59.829Z,0.2
2022-10-22T06:45:09.501Z,0.2
2022-10-22T06:46:19.978Z,0.2
2022-10-22T06:47:29.816Z,0.2
2022-10-22T06:48:38.522Z,0.3
2022-10-22T06:49:48.215Z,0.3
2022-10-22T06:50:57.888Z,0.2
2022-10-22T06:52:05.546Z,0.3
2022-10-22T06:53:14.279Z,0.2
2022-10-22T06:54:23.940Z,0.2
2022-10-22T06:55:32.614Z,0.2
2022-10-22T06:56:42.308Z,0.2
2022-10-22T06:57:50.955Z,0.3
2022-10-22T06:59:00.642Z,0.2
2022-10-22T07:00:09.343Z,0.2
2022-10-22T07:01:18.089Z,0.3
2022-10-22T07:02:27.677Z,0.2
2022-10-22T07:03:35.345Z,0.2
2022-10-22T07:04:45.014Z,0.5
2022-10-22T07:05:54.713Z,0.3
2022-10-22T07:07:03.382Z,0.4
2022-10-22T07:08:12.067Z,0.2
2022-10-22T07:09:21.733Z,0.3
2022-10-22T07:10:31.504Z,0.3
2022-10-22T07:11:41.088Z,0.2
2022-10-22T07:12:49.791Z,0.3
2022-10-22T07:13:59.436Z,0.3
2022-10-22T07:15:07.101Z,0.2
2022-10-22T07:16:15.776Z,0.3
2022-10-22T07:17:25.479Z,0.2
2022-10-22T07:18:33.211Z,0.3
2022-10-22T07:19:42.919Z,0.3
2022-10-22T07:20:52.742Z,0.3
2022-10-22T07:22:00.422Z,0.3
2022-10-22T07:23:10.129Z,0.2
2022-10-22T07:24:17.835Z,0.3
2022-10-22T07:25:27.527Z,0.3
2022-10-22T07:26:37.206Z,0.3
2022-10-22T07:27:45.910Z,0.2
2022-10-22T07:28:55.633Z,0.4
2022-10-22T07:30:05.308Z,0.4
2022-10-22T07:31:12.988Z,0.4
2022-10-22T07:32:23.867Z,0.4
2022-10-22T07:33:31.311Z,0.4
2022-10-22T07:34:41.845Z,0.3
2022-10-22T07:35:50.717Z,0.4
2022-10-22T07:37:00.439Z,0.5
2022-10-22T07:38:10.129Z,0.3
2022-10-22T07:39:18.805Z,0.3
2022-10-22T07:40:27.551Z,0.5
2022-10-22T07:41:37.286Z,0.8
2022-10-22T07:42:45.974Z,0.7
2022-10-22T07:43:55.707Z,0.7
2022-10-22T07:45:05.405Z,0.6
2022-10-22T07:46:15.203Z,0.5
2022-10-22T07:47:24.885Z,0.5
2022-10-22T07:48:33.647Z,0.6
2022-10-22T07:49:42.357Z,0.5
2022-10-22T07:50:52.022Z,0.5
2022-10-22T07:52:00.858Z,0.3
2022-10-22T07:53:10.567Z,0.2
2022-10-22T07:54:20.272Z,0.2
2022-10-22T07:55:28.940Z,0.2
2022-10-22T07:56:38.652Z,0.3
2022-10-22T07:57:48.395Z,0.3
2022-10-22T07:58:57.070Z,0.2
2022-10-22T08:00:06.813Z,0.4
2022-10-22T08:01:16.570Z,0.4
2022-10-22T08:02:25.196Z,0.3
2022-10-22T08:03:34.913Z,0.2
2022-10-22T08:04:44.649Z,0.3
2022-10-22T08:05:54.375Z,0.3
2022-10-22T08:07:03.128Z,0.3
2022-10-22T08:08:12.840Z,0.4
2022-10-22T08:09:22.603Z,0.5
2022-10-22T08:10:30.313Z,0.4
2022-10-22T08:11:39.031Z,0.4
2022-10-22T08:12:48.714Z,0.4
2022-10-22T08:13:57.381Z,0.5
2022-10-22T08:15:07.175Z,0.4
2022-10-22T08:16:15.840Z,0.3
2022-10-22T08:17:23.549Z,0.4
2022-10-22T08:18:34.234Z,0.3
2022-10-22T08:19:41.917Z,0.3
2022-10-22T08:20:50.659Z,0.3
2022-10-22T08:22:00.345Z,0.3
2022-10-22T08:23:09.027Z,0.2
2022-10-22T08:24:18.708Z,0.2
2022-10-22T08:25:27.418Z,0.3
2022-10-22T08:26:35.159Z,0.2
2022-10-22T08:27:44.998Z,0.2
2022-10-22T08:28:54.669Z,0.2
2022-10-22T08:30:03.371Z,0.3
2022-10-22T08:31:13.092Z,0.3
2022-10-22T08:32:22.916Z,0.6
2022-10-22T08:33:33.517Z,0.3
2022-10-22T08:34:42.207Z,0.2
2022-10-22T08:35:50.885Z,0.2
2022-10-22T08:37:00.655Z,0.3
2022-10-22T08:38:09.373Z,0.2
2022-10-22T08:39:18.113Z,0.2
2022-10-22T08:40:27.794Z,0.3
2022-10-22T08:41:35.460Z,0.2
2022-10-22T08:42:45.232Z,0.2
2022-10-22T08:43:54.225Z,0.2
2022-10-22T08:45:01.920Z,0.2
2022-10-22T08:46:11.606Z,0.2
2022-10-22T08:47:21.532Z,0.2
2022-10-22T08:48:30.966Z,0.2
2022-10-22T08:49:41.431Z,0.2
2022-10-22T08:50:49.576Z,0.2
2022-10-22T08:52:00.278Z,0.2
2022-10-22T08:53:08.983Z,0.2
2022-10-22T08:54:16.680Z,0.2
2022-10-22T08:55:26.549Z,0.2
2022-10-22T08:56:35.263Z,0.3
2022-10-22T08:57:44.911Z,0.3
2022-10-22T08:58:53.669Z,0.3
2022-10-22T09:00:01.388Z,0.3
2022-10-22T09:01:11.084Z,0.3
2022-10-22T09:02:19.801Z,0.4
2022-10-22T09:03:27.490Z,0.2
2022-10-22T09:04:37.182Z,0.2
2022-10-22T09:05:46.974Z,0.2
2022-10-22T09:06:55.588Z,0.2
2022-10-22T09:08:05.776Z,0.3
2022-10-22T09:09:15.508Z,0.6
2022-10-22T09:10:25.164Z,0.4
2022-10-22T09:11:33.859Z,0.3
2022-10-22T09:12:43.571Z,0.4
2022-10-22T09:13:53.294Z,0.3
2022-10-22T09:15:02.008Z,0.3
2022-10-22T09:16:11.711Z,0.2
2022-10-22T09:17:19.390Z,0.2
2022-10-22T09:18:28.145Z,0.3
2022-10-22T09:19:37.850Z,0.2
2022-10-22T09:20:46.541Z,0.3
2022-10-22T09:21:56.270Z,0.3
2022-10-22T09:23:04.999Z,0.3
2022-10-22T09:24:13.728Z,0.3
2022-10-22T09:25:23.405Z,0.3
2022-10-22T09:26:32.113Z,0.3
2022-10-22T09:27:40.993Z,0.3
2022-10-22T09:28:50.498Z,0.3
2022-10-22T09:29:58.219Z,0.2
2022-10-22T09:31:07.929Z,0.3
2022-10-22T09:32:16.634Z,0.3
2022-10-22T09:33:26.375Z,0.3
2022-10-22T09:34:35.081Z,0.5
2022-10-22T09:35:43.849Z,0.4
2022-10-22T09:36:53.528Z,0.4
2022-10-22T09:38:03.241Z,0.3
2022-10-22T09:39:10.901Z,0.4
2022-10-22T09:40:20.603Z,0.4
2022-10-22T09:41:30.317Z,0.5
2022-10-22T09:42:39.481Z,0.4
2022-10-22T09:43:48.870Z,0.4
2022-10-22T09:44:56.574Z,0.5
2022-10-22T09:46:06.271Z,0.6
2022-10-22T09:47:16.113Z,0.4
2022-10-22T09:48:23.814Z,0.3
2022-10-22T09:49:33.544Z,0.5
2022-10-22T09:50:43.253Z,0.5
2022-10-22T09:51:52.933Z,0.6
2022-10-22T09:53:02.877Z,0.4
2022-10-22T09:54:12.613Z,0.4
2022-10-22T09:55:22.330Z,1
2022-10-22T09:56:32.024Z,1.4
2022-10-22T09:57:41.011Z,0.9
2022-10-22T09:58:51.367Z,0.5
2022-10-22T10:00:01.129Z,0.7
2022-10-22T10:01:08.798Z,0.4
2022-10-22T10:02:26.782Z,0.5
2022-10-22T10:03:28.303Z,0.5
2022-10-22T10:04:36.877Z,0.7
2022-10-22T10:05:46.568Z,0.5
2022-10-22T10:06:55.250Z,0.4
2022-10-22T10:08:04.971Z,0.9
2022-10-22T10:09:14.720Z,0.6
2022-10-22T10:10:22.415Z,0.4
2022-10-22T10:11:32.082Z,0.7
2022-10-22T10:12:40.852Z,0.6
2022-10-22T10:13:49.542Z,0.5
2022-10-22T10:14:58.226Z,0.9
2022-10-22T10:16:07.964Z,0.5
2022-10-22T10:17:17.642Z,0.7
2022-10-22T10:18:26.365Z,0.5
2022-10-22T10:19:35.074Z,0.6
2022-10-22T10:20:44.802Z,0.9
2022-10-22T10:21:52.526Z,0.7
2022-10-22T10:23:02.273Z,0.5
2022-10-22T10:24:12.002Z,0.5
2022-10-22T10:25:21.711Z,0.6
2022-10-22T10:26:31.393Z,0.7
2022-10-22T10:27:40.103Z,0.5
2022-10-22T10:28:48.803Z,0.6
2022-10-22T10:29:58.492Z,0.4
2022-10-22T10:31:07.192Z,0.4
2022-10-22T10:32:18.866Z,0.3
2022-10-22T10:33:27.644Z,0.5
2022-10-22T10:34:36.333Z,0.2
2022-10-22T10:35:46.059Z,0.4
2022-10-22T10:36:54.744Z,0.4
2022-10-22T10:38:04.477Z,0.5
2022-10-22T10:39:14.182Z,0.6
2022-10-22T10:40:22.882Z,0.4
2022-10-22T10:41:31.620Z,0.5
2022-10-22T10:42:41.599Z,0.4
2022-10-22T10:43:50.039Z,0.3
2022-10-22T10:44:59.897Z,0.4
2022-10-22T10:46:09.523Z,0.2
2022-10-22T10:47:19.232Z,0.2
2022-10-22T10:48:27.997Z,0.2
2022-10-22T10:49:36.686Z,0.3
2022-10-22T10:50:45.504Z,0.3
2022-10-22T10:51:55.259Z,0.2
2022-10-22T10:53:04.162Z,0.2
2022-10-22T10:54:13.881Z,0.2
2022-10-22T10:55:22.615Z,0.3
2022-10-22T10:56:33.423Z,0.3
2022-10-22T10:57:43.460Z,0.6
2022-10-22T10:58:52.913Z,0.4
2022-10-22T11:00:01.640Z,0.5
2022-10-22T11:01:10.321Z,0.2
2022-10-22T11:02:20.055Z,0.3
2022-10-22T11:03:29.762Z,0.5
2022-10-22T11:04:39.515Z,0.3
2022-10-22T11:05:47.215Z,0.7
2022-10-22T11:07:05.765Z,0.2
2022-10-22T11:08:04.605Z,0.2
2022-10-22T11:09:14.297Z,0.1
2022-10-22T11:10:23.992Z,0.1
2022-10-22T11:11:32.704Z,0.1
2022-10-22T11:12:42.604Z,0.1
2022-10-22T11:13:51.110Z,0.1
2022-10-22T11:15:00.777Z,0.2
2022-10-22T11:16:09.480Z,0.2
2022-10-22T11:17:19.187Z,0.3
2022-10-22T11:18:28.900Z,0.3
2022-10-22T11:19:50.587Z,0.2
2022-10-22T11:20:49.285Z,0.1
2022-10-22T11:21:59.012Z,0.1
2022-10-22T11:23:22.469Z,0.2
2022-10-22T11:24:19.477Z,0.3
2022-10-22T11:25:28.198Z,0.3
2022-10-22T11:26:36.900Z,0.5
2022-10-22T11:27:46.627Z,0.3
2022-10-22T11:28:56.346Z,0.3
2022-10-22T11:30:05.022Z,0.1
2022-10-22T11:31:14.745Z,0.2
2022-10-22T11:32:23.488Z,0.1
2022-10-22T11:33:33.224Z,0.2
2022-10-22T11:34:41.905Z,0.1
2022-10-22T11:35:50.642Z,0.1
2022-10-22T11:37:00.353Z,0.3
2022-10-22T11:38:09.060Z,0.2
2022-10-22T11:39:17.738Z,0.2
2022-10-22T11:40:27.425Z,0.1
2022-10-22T11:41:35.097Z,0.1
2022-10-22T11:42:44.826Z,0.2
2022-10-22T11:43:54.558Z,0.1
2022-10-22T11:45:02.260Z,0.1
2022-10-22T11:46:11.974Z,0.2
2022-10-22T11:47:20.686Z,0
2022-10-22T11:48:30.464Z,0.1
2022-10-22T11:49:40.152Z,0.1
2022-10-22T11:50:48.855Z,0.1
2022-10-22T11:52:01.721Z,0.1
2022-10-22T11:53:07.315Z,0.1
2022-10-22T11:54:15.955Z,0.1
2022-10-22T11:55:25.639Z,0.1
2022-10-22T11:56:33.342Z,0.1
2022-10-22T11:57:43.249Z,0
2022-10-22T11:58:54.636Z,0.2
2022-10-22T12:00:02.706Z,0.1
2022-10-22T12:01:13.406Z,0.3
2022-10-22T12:02:22.095Z,0.1
2022-10-22T12:03:30.817Z,0.1
2022-10-22T12:04:39.512Z,0
2022-10-22T12:05:48.352Z,0.1
2022-10-22T12:06:58.035Z,0
2022-10-22T12:08:08.258Z,0
2022-10-22T12:09:16.461Z,0.1
2022-10-22T12:10:26.147Z,0
2022-10-22T12:11:34.915Z,0.3
2022-10-22T12:12:43.686Z,0.1
2022-10-22T12:13:53.373Z,0.1
2022-10-22T12:15:02.104Z,0.1
2022-10-22T12:16:12.903Z,0.1
2022-10-22T12:17:21.551Z,0.1
2022-10-22T12:18:30.373Z,0
2022-10-22T12:19:40.045Z,0
2022-10-22T12:20:48.717Z,0.1
2022-10-22T12:21:56.416Z,0
2022-10-22T12:23:06.168Z,0.1
2022-10-22T12:24:14.880Z,0.1
2022-10-22T12:25:23.606Z,0.1
2022-10-22T12:26:33.297Z,0
2022-10-22T12:27:41.321Z,0.1
2022-10-22T12:28:50.808Z,0.1
2022-10-22T12:29:59.480Z,0.2
2022-10-22T12:31:08.246Z,0.1
2022-10-22T12:32:17.946Z,0.3
2022-10-22T12:33:27.678Z,0.2
2022-10-22T12:34:36.376Z,0.1
2022-10-22T12:35:46.055Z,0.1
2022-10-22T12:36:55.738Z,0.1
2022-10-22T12:38:05.437Z,0.1
2022-10-22T12:39:14.128Z,0.2
2022-10-22T12:40:21.887Z,0.1
2022-10-22T12:41:31.583Z,0.2
2022-10-22T12:42:41.343Z,0.1
2022-10-22T12:43:50.035Z,0.3
2022-10-22T12:44:59.730Z,0.1
2022-10-22T12:46:09.419Z,0.1
2022-10-22T12:47:19.109Z,0.3
2022-10-22T12:48:28.815Z,0.3
2022-10-22T12:49:37.571Z,0.3
2022-10-22T12:50:47.294Z,0.2
2022-10-22T12:51:55.019Z,0.1
2022-10-22T12:53:03.734Z,0.1
2022-10-22T12:54:13.424Z,0.2
2022-10-22T12:55:23.141Z,0.2
2022-10-22T12:56:32.846Z,0.2
2022-10-22T12:57:43.434Z,0.1
2022-10-22T12:58:51.132Z,0.4
2022-10-22T13:01:09.634Z,0.2
2022-10-22T13:02:18.278Z,0.1
2022-10-22T13:03:28.278Z,0.2
2022-10-22T13:04:37.979Z,0.1
2022-10-22T13:05:47.704Z,0.2
2022-10-22T13:06:54.366Z,0.1
2022-10-22T13:08:05.072Z,0
2022-10-22T13:09:13.978Z,0.1
2022-10-22T13:10:23.567Z,0.1
2022-10-22T13:11:33.356Z,0.1
2022-10-22T13:12:42.420Z,0.1
2022-10-22T13:13:51.901Z,0
2022-10-22T13:15:01.638Z,0.1
2022-10-22T13:16:11.337Z,0.1
2022-10-22T13:17:21.022Z,0.2
2022-10-22T13:18:29.739Z,0.1
2022-10-22T13:19:38.442Z,0.1
2022-10-22T13:20:48.179Z,0.1
2022-10-22T13:21:58.933Z,0.2
2022-10-22T13:23:07.693Z,0.1
2022-10-22T13:24:17.408Z,0.4
2022-10-22T13:25:27.106Z,0.2
2022-10-22T13:26:36.861Z,0.2
2022-10-22T13:27:45.552Z,0.3
2022-10-22T13:28:53.240Z,0.3
2022-10-22T13:30:03.028Z,0.4
2022-10-22T13:31:11.744Z,0.3
2022-10-22T13:32:21.510Z,0.2
2022-10-22T13:33:31.238Z,0.2
2022-10-22T13:34:39.956Z,0.3
2022-10-22T13:35:48.664Z,0.2
2022-10-22T13:36:57.371Z,0.1
2022-10-22T13:38:06.072Z,0.1
2022-10-22T13:39:15.802Z,0.2
2022-10-22T13:40:23.477Z,0.1
2022-10-22T13:41:32.302Z,0.2
2022-10-22T13:42:42.174Z,0.3
2022-10-22T13:43:49.668Z,0.2
2022-10-22T13:44:59.461Z,0.2
2022-10-22T13:46:08.165Z,0.2
2022-10-22T13:47:15.902Z,0.2
2022-10-22T13:48:25.579Z,0.2
2022-10-22T13:49:34.326Z,0.1
2022-10-22T13:50:43.011Z,0.2
2022-10-22T13:51:52.731Z,0.2
2022-10-22T13:53:01.465Z,0.3
2022-10-22T13:54:11.244Z,0.2
2022-10-22T13:55:19.991Z,0.2
2022-10-22T13:56:28.713Z,0.2
2022-10-22T13:57:38.455Z,0.2
2022-10-22T13:58:46.165Z,0.2
2022-10-22T13:59:54.924Z,0.1
2022-10-22T14:01:04.771Z,0.1
2022-10-22T14:02:12.438Z,0.1
2022-10-22T14:03:22.174Z,0.2
2022-10-22T14:04:31.849Z,0.1
2022-10-22T14:05:40.521Z,0.1
2022-10-22T14:06:50.359Z,0.1
2022-10-22T14:08:00.230Z,0.2
2022-10-22T14:09:09.027Z,0.1
2022-10-22T14:10:18.715Z,0.1
2022-10-22T14:11:28.378Z,0.1
2022-10-22T14:12:38.127Z,0.2
2022-10-22T14:13:46.797Z,0.2
2022-10-22T14:16:07.285Z,0.1
2022-10-22T14:17:15.008Z,0.1
2022-10-22T14:18:23.787Z,0.1
2022-10-22T14:19:33.459Z,0.1
2022-10-22T14:20:41.140Z,0.1
2022-10-22T14:21:50.899Z,0.1
2022-10-22T14:22:59.697Z,0.2
2022-10-22T14:24:10.793Z,0.2
2022-10-22T14:25:20.202Z,0.1
2022-10-22T14:26:28.852Z,0.1
2022-10-22T14:27:37.613Z,0.2
2022-10-22T14:29:08.634Z,0.2
2022-10-22T14:29:59.564Z,0.2
2022-10-22T14:31:08.724Z,0.2
2022-10-22T14:32:17.467Z,0.3
2022-10-22T14:33:30.451Z,0.2
2022-10-22T14:34:38.936Z,0.1
2022-10-22T14:35:47.699Z,0.2
2022-10-22T14:36:57.389Z,0.2
2022-10-22T14:38:07.219Z,0.3
2022-10-22T14:39:15.915Z,0.3
2022-10-22T14:40:25.629Z,0.3
2022-10-22T14:41:36.324Z,0.4
2022-10-22T14:42:46.081Z,0.4
2022-10-22T14:43:55.818Z,0.5
2022-10-22T14:45:04.496Z,0.4
2022-10-22T14:46:13.181Z,0.2
2022-10-22T14:47:22.960Z,0.4
2022-10-22T14:48:31.716Z,0.2
2022-10-22T14:49:41.443Z,0.3
2022-10-22T14:50:50.153Z,0.2
2022-10-22T14:51:58.944Z,0.3
2022-10-22T14:53:08.611Z,0.1
2022-10-22T14:54:17.357Z,0.2
2022-10-22T14:55:27.091Z,0.2
2022-10-22T14:57:45.539Z,0.3
2022-10-22T14:58:55.301Z,0.1
2022-10-22T15:00:04.014Z,0.4
2022-10-22T15:01:13.764Z,0.2
2022-10-22T15:02:23.532Z,0.2
2022-10-22T15:03:32.252Z,0.3
2022-10-22T15:04:42.112Z,0.1
2022-10-22T15:05:51.848Z,0.3
2022-10-22T15:07:00.532Z,0.1
2022-10-22T15:08:10.252Z,0.2
2022-10-22T15:09:17.981Z,0.2
2022-10-22T15:10:27.798Z,0.1
2022-10-22T15:11:37.500Z,0.1
2022-10-22T15:12:45.221Z,0.2
2022-10-22T15:13:54.892Z,0.1
2022-10-22T15:15:02.595Z,0.2
2022-10-22T15:16:11.386Z,0.2
2022-10-22T15:17:21.128Z,0.1
2022-10-22T15:18:28.808Z,0.2
2022-10-22T15:19:38.509Z,0.2
2022-10-22T15:20:47.215Z,0.1
2022-10-22T15:21:55.962Z,0.3
2022-10-22T15:23:05.663Z,0.1
2022-10-22T15:24:13.347Z,0.2
2022-10-22T15:25:22.035Z,0.2
2022-10-22T15:26:31.716Z,0.1
2022-10-22T15:27:40.475Z,0.1
2022-10-22T15:28:50.277Z,0.2
2022-10-22T15:29:59.025Z,0.3
2022-10-22T15:31:07.612Z,0.1
2022-10-22T15:32:17.325Z,0.2
2022-10-22T15:33:25.047Z,0.1
2022-10-22T15:34:33.859Z,0.1
2022-10-22T15:35:43.553Z,0.2
2022-10-22T15:36:51.233Z,0.1
2022-10-22T15:38:00.927Z,0.3
2022-10-22T15:39:09.620Z,0.1
2022-10-22T15:40:19.302Z,0.3
2022-10-22T15:41:29.012Z,0.2
2022-10-22T15:42:36.691Z,0.3
2022-10-22T15:43:45.381Z,0.2
2022-10-22T15:44:55.141Z,0.3
2022-10-22T15:46:02.796Z,0.2
2022-10-22T15:47:12.551Z,0.2
2022-10-22T15:48:22.275Z,0.4
2022-10-22T15:49:32.026Z,0.3
2022-10-22T15:50:41.758Z,0.2
2022-10-22T15:51:49.424Z,0.3
2022-10-22T15:52:58.123Z,0.4
2022-10-22T15:54:10.106Z,0.4
2022-10-22T15:55:17.505Z,0.4
2022-10-22T15:56:27.225Z,0.3
2022-10-22T15:57:35.928Z,0.4
2022-10-22T15:58:43.638Z,0.3
2022-10-22T15:59:53.337Z,0.4
2022-10-22T16:01:02.145Z,0.3
2022-10-22T16:02:11.797Z,0.4
2022-10-22T16:03:21.548Z,0.3